Sidell, IL (61876)

5:02 AM CDT on August 27, 2016 (GMT -0500)
APRSWXNET | | Change Station

Elev 649 ft 39.80 °N, 87.98 °W | Updated 34 minutes ago

Clear
Clear
71 °F
Feels Like 71 °F
N
2
Wind Variable Wind from SW
Gusts 7.0 mph

Today
High -- | Low -- °F
--% Chance of Precip.
Yesterday
High -- | Low -- °F
Precip. -- in
Pressure 30.05 in
Visibility 3.0 miles
Clouds Clear
Dew Point 70 °F
Humidity 96%
Rainfall in
Snow Depth Not available.
6:14 AM 7:29 PM
Waning Crescent, 26% visible
METAR KPRG 270955Z AUTO 00000KT 3SM BR CLR 21/21 A3005 RMK AO2 LTG DSNT N AND W T02110211
Pressure 30.05 in
Visibility 3.0 miles
Clouds Clear
Dew Point 70 °F
Humidity 96%
Rainfall in
Snow Depth Not available.
6:14 AM 7:29 PM
Waning Crescent, 26% visible
METAR KPRG 270955Z AUTO 00000KT 3SM BR CLR 21/21 A3005 RMK AO2 LTG DSNT N AND W T02110211

10-Day Weather Forecast

Almanac

Astronomy

Aug. 27, 2016 Rise Set
Actual Time
Civil Twilight
Nautical Twilight
Astronomical Twilight
Moon
Length of Visible Light
Length of Day
Tomorrow will be .
, % of the Moon is Illuminated

Today's Extremes

State Highs State Lows

Community

WunderPhotos

Upload Photos

1,935,313 photos uploaded!

WunderBlog® & News

Nearby

Air Quality

  Air Quality AQ Index Pollutant
Not available.

Snow Depth

Station Depth Elevation

Earthquake Activity

City Distance Mag. Time & Date
Minimum magnitude displayed is 2.5.

Coastal Water Temperatures

Place Temperature

Stations

Nearby Weather Stations

Station Location Temp. Windchill Dew Point Humidity Wind Precip. Elev Updated Type
                   

Watches & Warnings

There are currently no watches in effect.